Time;durP1;ratioP1;P1;durP2;ratioP2;P2;SDS_P1;SDS_P2;PMS_P1;PMS_P2;Temp;Humidity;BMP_temperature;BMP_pressure;BME280_temperature;BME280_humidity;BME280_pressure;Samples;Min_cycle;Max_cycle;Signal;HPM_P1;HPM_P2
2022/04/13 00:00:58;;;;;;;12.03;4.93;;;11.60;41.20;;;;;;5033246;28;20459;-84
2022/04/13 00:03:26;;;;;;;20.50;5.07;;;11.60;41.70;;;;;;5033251;28;20576;-85
2022/04/13 00:05:55;;;;;;;15.43;6.30;;;11.60;42.30;;;;;;5033257;28;20455;-85
2022/04/13 00:08:21;;;;;;;14.80;5.37;;;11.40;42.50;;;;;;5032118;28;20539;-84
2022/04/13 00:10:48;;;;;;;18.13;5.20;;;11.50;43.70;;;;;;5031962;28;20828;-84
2022/04/13 00:13:15;;;;;;;14.40;7.30;;;11.30;45.10;;;;;;5033179;28;20860;-84
2022/04/13 00:15:42;;;;;;;20.00;5.40;;;11.30;45.10;;;;;;5032751;28;20456;-84
2022/04/13 00:18:09;;;;;;;13.13;5.80;;;11.40;45.20;;;;;;5031887;28;20976;-83
2022/04/13 00:20:37;;;;;;;13.67;5.63;;;11.40;44.80;;;;;;5033348;28;20444;-84
2022/04/13 00:23:04;;;;;;;16.27;5.70;;;11.40;45.20;;;;;;5036548;28;20849;-85
2022/04/13 00:25:31;;;;;;;16.23;6.20;;;11.30;45.10;;;;;;5036133;28;20456;-84
2022/04/13 00:27:58;;;;;;;11.60;3.97;;;11.30;45.10;;;;;;5036633;28;20472;-85
2022/04/13 00:30:25;;;;;;;9.97;4.50;;;11.30;45.10;;;;;;5035719;28;20535;-84
2022/04/13 00:32:52;;;;;;;12.67;5.80;;;11.30;46.10;;;;;;5036450;28;20465;-85
2022/04/13 00:35:19;;;;;;;18.00;5.07;;;11.30;47.20;;;;;;5036101;28;20463;-84
2022/04/13 00:37:47;;;;;;;39.33;6.67;;;11.30;48.20;;;;;;5035868;28;20987;-84
2022/04/13 00:40:13;;;;;;;17.30;5.23;;;11.30;48.60;;;;;;5035210;28;20460;-85
2022/04/13 00:42:40;;;;;;;11.57;5.17;;;11.20;49.40;;;;;;5036136;28;20850;-85
2022/04/13 00:45:07;;;;;;;16.43;5.43;;;11.20;49.80;;;;;;5036087;28;20467;-84
2022/04/13 00:47:39;;;;;;;14.00;7.37;;;11.10;51.30;;;;;;5036650;28;20463;-84
2022/04/13 00:50:06;;;;;;;13.13;6.20;;;11.30;52.80;;;;;;5035370;28;20460;-85
2022/04/13 00:52:36;;;;;;;13.03;6.47;;;11.20;53.00;;;;;;5035690;28;20482;-84
2022/04/13 00:55:08;;;;;;;14.47;5.90;;;11.20;53.40;;;;;;5036372;28;20805;-84
2022/04/13 00:57:37;;;;;;;14.40;5.40;;;11.30;53.80;;;;;;5036209;28;20456;-84
2022/04/13 01:00:06;;;;;;;11.23;4.70;;;11.30;53.80;;;;;;5035617;28;20459;-84
2022/04/13 01:02:34;;;;;;;8.80;5.17;;;11.30;54.20;;;;;;5035006;28;20855;-84
2022/04/13 01:05:04;;;;;;;10.20;5.00;;;11.40;53.80;;;;;;5035397;28;20459;-84
2022/04/13 01:07:31;;;;;;;16.73;4.97;;;11.50;53.90;;;;;;5034579;28;20957;-85
2022/04/13 01:10:00;;;;;;;10.90;4.20;;;11.60;53.00;;;;;;5034624;28;20460;-85
2022/04/13 01:12:28;;;;;;;7.73;5.13;;;11.40;52.30;;;;;;5036344;28;20526;-85
2022/04/13 01:14:55;;;;;;;17.17;5.37;;;11.50;53.70;;;;;;5035043;28;20449;-85
2022/04/13 01:17:22;;;;;;;12.27;4.93;;;11.50;53.00;;;;;;5027417;28;20460;-85
2022/04/13 01:19:49;;;;;;;14.13;4.07;;;11.60;52.90;;;;;;5020201;28;20484;-84
2022/04/13 01:22:19;;;;;;;8.57;4.23;;;11.50;52.30;;;;;;5035811;28;20850;-85
2022/04/13 01:24:46;;;;;;;10.80;4.63;;;11.50;51.90;;;;;;5035193;28;20472;-84
2022/04/13 01:27:14;;;;;;;10.60;4.50;;;11.60;52.90;;;;;;5034836;28;20464;-85
2022/04/13 01:29:41;;;;;;;8.40;4.30;;;11.60;56.00;;;;;;5034539;28;20484;-84
2022/04/13 01:32:09;;;;;;;15.63;4.67;;;11.70;55.30;;;;;;5034888;28;20479;-85
2022/04/13 01:34:35;;;;;;;14.70;5.07;;;11.50;55.40;;;;;;5035320;28;20459;-84
2022/04/13 01:37:02;;;;;;;11.93;5.40;;;11.50;54.50;;;;;;5035254;28;20460;-84
2022/04/13 01:39:30;;;;;;;10.93;6.30;;;11.30;55.50;;;;;;5033109;28;20460;-84
2022/04/13 01:41:57;;;;;;;14.17;5.47;;;11.40;56.80;;;;;;5035169;28;20472;-85
2022/04/13 01:44:24;;;;;;;11.60;5.57;;;11.40;57.60;;;;;;5035173;28;20480;-86
2022/04/13 01:46:51;;;;;;;9.57;5.60;;;11.30;57.40;;;;;;5034800;28;20463;-84
2022/04/13 01:49:17;;;;;;;15.73;5.53;;;11.30;57.30;;;;;;5035762;28;20456;-85
2022/04/13 01:51:44;;;;;;;17.03;6.00;;;11.30;56.70;;;;;;5035965;28;20476;-85
2022/04/13 01:54:11;;;;;;;15.70;6.17;;;11.10;57.00;;;;;;5035263;28;20848;-85
2022/04/13 01:56:39;;;;;;;10.23;4.83;;;11.00;58.00;;;;;;5034897;28;20459;-85
2022/04/13 01:59:07;;;;;;;11.60;5.47;;;10.80;58.80;;;;;;5033958;28;20452;-84
2022/04/13 02:01:35;;;;;;;14.30;5.87;;;10.80;60.30;;;;;;5054127;22;20489;-82
2022/04/13 02:04:02;;;;;;;8.63;5.40;;;10.60;61.50;;;;;;5013326;28;20544;-81
2022/04/13 02:06:29;;;;;;;12.87;6.50;;;10.50;61.40;;;;;;4995084;28;20467;-81
2022/04/13 02:08:56;;;;;;;12.20;6.07;;;10.40;63.20;;;;;;4994416;28;20486;-82
2022/04/13 02:11:23;;;;;;;11.30;6.13;;;10.30;63.20;;;;;;4994569;28;20940;-81
2022/04/13 02:13:51;;;;;;;14.57;9.70;;;10.20;63.70;;;;;;4994304;28;20461;-81
2022/04/13 02:16:17;;;;;;;10.73;8.37;;;10.10;65.90;;;;;;5013929;28;20450;-81
2022/04/13 02:18:44;;;;;;;12.43;8.30;;;10.00;66.30;;;;;;5013636;28;20457;-82
2022/04/13 02:21:11;;;;;;;12.60;9.60;;;10.00;66.60;;;;;;5014543;28;20457;-81
2022/04/13 02:23:38;;;;;;;14.07;11.60;;;9.80;68.70;;;;;;5014328;28;20480;-81
2022/04/13 02:26:04;;;;;;;15.83;13.00;;;10.00;68.40;;;;;;5013846;28;20449;-84
2022/04/13 02:28:31;;;;;;;15.20;12.70;;;9.90;69.10;;;;;;5014254;28;20449;-81
2022/04/13 02:30:59;;;;;;;12.20;10.80;;;10.10;67.60;;;;;;5014198;28;20453;-81
2022/04/13 02:33:26;;;;;;;16.93;12.33;;;9.80;68.30;;;;;;5014172;28;20469;-81
2022/04/13 02:35:54;;;;;;;21.17;19.17;;;9.60;68.70;;;;;;5013905;28;20457;-83
2022/04/13 02:38:20;;;;;;;25.60;24.20;;;9.70;71.50;;;;;;5013608;28;20564;-81
2022/04/13 02:40:47;;;;;;;31.70;29.90;;;9.70;72.90;;;;;;5014111;28;20453;-83
2022/04/13 02:43:14;;;;;;;31.60;29.57;;;9.80;73.80;;;;;;5013892;28;20493;-81
2022/04/13 02:45:41;;;;;;;35.73;33.83;;;9.70;73.90;;;;;;5013284;28;20464;-80
2022/04/13 02:48:09;;;;;;;29.40;27.70;;;9.70;74.50;;;;;;5013738;28;20453;-80
2022/04/13 02:50:37;;;;;;;29.73;27.57;;;9.70;74.70;;;;;;5013882;28;20457;-83
2022/04/13 02:53:04;;;;;;;27.67;25.83;;;9.50;74.70;;;;;;5012655;28;20485;-81
2022/04/13 02:55:30;;;;;;;22.23;20.90;;;9.50;75.00;;;;;;5012817;28;20973;-83
2022/04/13 02:57:57;;;;;;;24.80;23.10;;;9.40;75.30;;;;;;5012325;28;20461;-81
2022/04/13 03:00:24;;;;;;;18.87;17.23;;;9.60;75.60;;;;;;5010678;28;20520;-82
2022/04/13 03:02:51;;;;;;;18.30;17.00;;;9.60;74.80;;;;;;5009908;28;20539;-84
2022/04/13 03:05:19;;;;;;;21.57;17.23;;;9.70;74.40;;;;;;5012608;28;21021;-81
2022/04/13 03:07:45;;;;;;;17.50;15.90;;;9.90;74.00;;;;;;5013202;28;20460;-82
2022/04/13 03:10:12;;;;;;;16.47;14.97;;;9.90;73.00;;;;;;5011299;28;20453;-82
2022/04/13 03:12:41;;;;;;;28.93;23.17;;;10.20;71.60;;;;;;5013437;28;20547;-84
2022/04/13 03:15:09;;;;;;;14.20;10.83;;;10.30;71.30;;;;;;5013844;28;20540;-81
2022/04/13 03:17:36;;;;;;;12.60;9.63;;;10.30;69.80;;;;;;5011466;28;20457;-81
2022/04/13 03:20:04;;;;;;;12.60;9.03;;;10.40;69.40;;;;;;5012836;28;20456;-81
2022/04/13 03:22:32;;;;;;;15.57;10.30;;;10.40;69.40;;;;;;5013777;28;20473;-81
2022/04/13 03:25:00;;;;;;;14.20;8.77;;;10.40;69.20;;;;;;5012138;28;20492;-82
2022/04/13 03:27:27;;;;;;;10.60;9.50;;;10.30;69.30;;;;;;5013562;28;20475;-82
2022/04/13 03:29:54;;;;;;;14.97;13.40;;;10.20;70.80;;;;;;5012621;28;20659;-81
2022/04/13 03:32:20;;;;;;;17.00;12.60;;;10.40;70.90;;;;;;5011962;28;20997;-81
2022/04/13 03:34:47;;;;;;;14.63;12.97;;;10.30;71.70;;;;;;5013259;28;20445;-81
2022/04/13 03:37:14;;;;;;;12.70;11.60;;;10.30;72.00;;;;;;5012969;28;20954;-80
2022/04/13 03:39:42;;;;;;;17.60;16.10;;;10.30;72.10;;;;;;5011802;28;20496;-84
2022/04/13 03:42:09;;;;;;;13.77;10.70;;;10.30;72.50;;;;;;5015121;28;20469;-81
2022/04/13 03:44:35;;;;;;;13.87;12.57;;;10.30;70.70;;;;;;5013301;28;20472;-82
2022/04/13 03:47:02;;;;;;;13.83;11.37;;;10.40;70.70;;;;;;5012131;28;20457;-81
2022/04/13 03:49:29;;;;;;;12.83;9.03;;;10.50;70.70;;;;;;5014757;28;20453;-81
2022/04/13 03:51:56;;;;;;;15.00;13.10;;;10.50;70.30;;;;;;5015014;28;20484;-81
2022/04/13 03:54:22;;;;;;;17.17;13.33;;;10.50;71.30;;;;;;5014474;28;20461;-81
2022/04/13 03:56:53;;;;;;;22.93;14.00;;;10.50;71.70;;;;;;5017051;28;20460;-82
2022/04/13 03:59:21;;;;;;;13.90;8.27;;;10.70;71.00;;;;;;5018094;28;20532;-82
2022/04/13 04:01:48;;;;;;;15.87;11.83;;;10.50;70.00;;;;;;5016646;28;20483;-84
2022/04/13 04:04:15;;;;;;;13.83;12.60;;;10.50;71.70;;;;;;5017577;28;20982;-82
2022/04/13 04:06:41;;;;;;;21.37;16.27;;;10.50;71.90;;;;;;5017423;28;20459;-82
2022/04/13 04:09:08;;;;;;;16.00;12.67;;;10.60;72.70;;;;;;5016001;28;20457;-82
2022/04/13 04:11:35;;;;;;;18.80;10.37;;;10.70;72.10;;;;;;5017121;28;21027;-82
2022/04/13 04:14:03;;;;;;;16.40;10.07;;;10.60;71.40;;;;;;5016165;28;20455;-85
2022/04/13 04:16:30;;;;;;;20.33;12.60;;;10.60;71.50;;;;;;5015158;28;20453;-81
2022/04/13 04:18:57;;;;;;;21.93;13.50;;;10.60;71.90;;;;;;5016751;28;20474;-81
2022/04/13 04:21:23;;;;;;;18.90;17.47;;;10.60;72.40;;;;;;5015257;28;20473;-84
2022/04/13 04:23:50;;;;;;;28.50;12.87;;;10.60;73.10;;;;;;5017489;28;20484;-81
2022/04/13 04:26:17;;;;;;;13.50;8.50;;;10.80;72.10;;;;;;5017899;28;20465;-81
2022/04/13 04:28:43;;;;;;;16.80;11.43;;;10.90;71.80;;;;;;5015172;28;20945;-82
2022/04/13 04:31:11;;;;;;;16.47;13.47;;;10.70;72.50;;;;;;5016163;28;20485;-83
2022/04/13 04:33:38;;;;;;;17.23;10.73;;;10.80;72.60;;;;;;5016458;28;21028;-81
2022/04/13 04:36:05;;;;;;;17.20;13.83;;;10.70;72.20;;;;;;5015582;28;20457;-85
2022/04/13 04:38:32;;;;;;;15.23;13.90;;;10.70;73.80;;;;;;5015330;28;20803;-80
2022/04/13 04:40:59;;;;;;;21.27;19.43;;;10.60;74.70;;;;;;5015551;28;20453;-81
2022/04/13 04:43:26;;;;;;;23.90;22.07;;;10.50;74.80;;;;;;5015881;28;20469;-82
2022/04/13 04:45:53;;;;;;;24.50;22.90;;;10.50;76.40;;;;;;5020389;28;20468;-81
2022/04/13 04:48:21;;;;;;;29.00;26.70;;;10.40;77.30;;;;;;5020372;28;20552;-83
2022/04/13 04:50:47;;;;;;;26.47;24.20;;;10.40;77.30;;;;;;5018277;28;20461;-82
2022/04/13 04:53:14;;;;;;;17.90;15.70;;;10.40;76.50;;;;;;5019698;28;20484;-81
2022/04/13 04:55:42;;;;;;;18.43;16.90;;;10.30;75.50;;;;;;5017308;28;20975;-81
2022/04/13 04:58:10;;;;;;;18.00;16.30;;;10.30;75.40;;;;;;5015007;28;20819;-80
2022/04/13 05:00:37;;;;;;;17.90;16.20;;;10.50;75.30;;;;;;5015693;28;20491;-81
2022/04/13 05:03:04;;;;;;;19.03;17.13;;;10.30;74.70;;;;;;5015667;28;20485;-81
2022/04/13 05:05:32;;;;;;;15.70;14.30;;;10.40;74.50;;;;;;5014867;28;20837;-81
2022/04/13 05:07:59;;;;;;;15.60;14.30;;;10.30;74.00;;;;;;5015352;28;20460;-82
2022/04/13 05:10:26;;;;;;;23.20;20.50;;;10.40;75.00;;;;;;5014995;28;20457;-81
2022/04/13 05:12:56;;;;;;;26.63;25.13;;;10.60;76.20;;;;;;5014659;28;20473;-82
2022/04/13 05:15:23;;;;;;;30.17;27.53;;;10.40;76.90;;;;;;5014532;28;20516;-81
2022/04/13 05:17:50;;;;;;;33.67;31.67;;;10.40;77.30;;;;;;5015403;28;20827;-84
2022/04/13 05:20:17;;;;;;;28.27;26.47;;;10.40;77.30;;;;;;5011432;28;20454;-83
2022/04/13 05:22:45;;;;;;;32.40;30.10;;;10.30;77.20;;;;;;5007658;28;20469;-80
2022/04/13 05:25:13;;;;;;;54.37;50.73;;;10.40;77.30;;;;;;5014012;28;20477;-82
2022/04/13 05:27:40;;;;;;;39.30;36.87;;;10.60;77.50;;;;;;4996872;28;20454;-80
2022/04/13 05:30:09;;;;;;;27.83;25.80;;;10.60;77.50;;;;;;5012099;28;20461;-82
2022/04/13 05:32:46;;;;;;;31.47;28.93;;;10.70;75.90;;;;;;5014245;28;20480;-81
2022/04/13 05:35:13;;;;;;;33.13;30.30;;;10.90;75.80;;;;;;5014316;28;20473;-83
2022/04/13 05:37:40;;;;;;;31.53;29.83;;;10.90;75.90;;;;;;5014459;28;20456;-80
2022/04/13 05:40:09;;;;;;;18.40;16.90;;;10.90;76.70;;;;;;5012050;28;20461;-80
2022/04/13 05:42:36;;;;;;;14.93;13.53;;;11.00;74.30;;;;;;5014087;28;20469;-81
2022/04/13 05:45:03;;;;;;;24.50;22.60;;;11.10;72.70;;;;;;5012800;28;20477;-84
2022/04/13 05:47:30;;;;;;;20.90;18.70;;;11.20;74.60;;;;;;5013871;28;20515;-82
2022/04/13 05:49:57;;;;;;;15.03;13.50;;;11.30;74.50;;;;;;5013183;28;20457;-81
2022/04/13 05:52:23;;;;;;;19.77;18.13;;;11.40;74.10;;;;;;5012182;28;20857;-81
2022/04/13 05:54:50;;;;;;;20.70;18.83;;;11.60;73.90;;;;;;5013525;28;20461;-81
2022/04/13 05:57:18;;;;;;;18.87;17.47;;;11.50;74.10;;;;;;5013662;28;20454;-81
2022/04/13 05:59:45;;;;;;;18.77;16.70;;;11.60;74.20;;;;;;5013463;28;20933;-81
2022/04/13 06:02:12;;;;;;;21.10;18.90;;;11.70;73.80;;;;;;5013132;28;20485;-80
2022/04/13 06:04:38;;;;;;;17.00;15.20;;;11.70;73.00;;;;;;5014551;28;20484;-81
2022/04/13 06:07:07;;;;;;;26.23;21.33;;;11.80;73.30;;;;;;5014627;28;20451;-84
2022/04/13 06:09:34;;;;;;;23.03;18.57;;;11.90;73.80;;;;;;5013085;28;20472;-81
2022/04/13 06:12:01;;;;;;;19.90;16.23;;;11.90;73.60;;;;;;5012995;28;21048;-81
2022/04/13 06:14:29;;;;;;;27.83;18.03;;;12.00;74.10;;;;;;5014223;28;20449;-83
2022/04/13 06:16:56;;;;;;;29.43;16.80;;;12.10;74.70;;;;;;5012903;28;20457;-83
2022/04/13 06:19:22;;;;;;;23.87;12.43;;;12.00;74.10;;;;;;5012253;28;20950;-81
2022/04/13 06:21:49;;;;;;;22.83;12.97;;;12.10;72.70;;;;;;5014940;28;21001;-82
2022/04/13 06:24:16;;;;;;;24.03;12.43;;;12.40;73.30;;;;;;5012986;28;20457;-83
2022/04/13 06:26:43;;;;;;;20.43;13.90;;;12.60;72.90;;;;;;5013446;28;20452;-86
2022/04/13 06:29:09;;;;;;;29.50;17.00;;;12.80;72.30;;;;;;5012372;28;20457;-82
2022/04/13 06:31:38;;;;;;;29.10;15.00;;;12.80;72.90;;;;;;5012263;28;20483;-82
2022/04/13 06:34:04;;;;;;;27.40;12.40;;;12.90;72.60;;;;;;5014365;28;20449;-82
2022/04/13 06:36:31;;;;;;;21.30;15.03;;;13.10;71.10;;;;;;5014085;28;20450;-82
2022/04/13 06:38:58;;;;;;;17.93;9.43;;;13.20;73.90;;;;;;5011861;28;20454;-82
2022/04/13 06:41:24;;;;;;;22.67;10.27;;;13.30;69.90;;;;;;5013425;28;20469;-82
2022/04/13 06:43:53;;;;;;;21.50;10.03;;;13.50;70.30;;;;;;5013513;28;20537;-83
2022/04/13 06:46:20;;;;;;;23.73;12.63;;;13.70;71.20;;;;;;5012199;28;20560;-83
2022/04/13 06:48:48;;;;;;;20.20;9.70;;;13.80;70.20;;;;;;5012319;28;20503;-82
2022/04/13 06:51:15;;;;;;;27.20;11.00;;;14.00;69.80;;;;;;5007879;28;20457;-82
2022/04/13 06:53:41;;;;;;;23.60;11.43;;;14.20;68.60;;;;;;5009840;28;20453;-80
2022/04/13 06:56:08;;;;;;;20.20;9.83;;;14.40;66.70;;;;;;5011602;28;20453;-81
2022/04/13 06:58:35;;;;;;;19.50;11.50;;;14.60;67.30;;;;;;5010409;28;20457;-82
2022/04/13 07:01:01;;;;;;;18.07;9.50;;;14.80;67.10;;;;;;5011799;28;20460;-82
2022/04/13 07:03:28;;;;;;;21.47;12.53;;;14.90;67.40;;;;;;5011361;28;20856;-83
2022/04/13 07:05:56;;;;;;;20.97;11.17;;;14.90;64.40;;;;;;5011146;28;20473;-83
2022/04/13 07:08:23;;;;;;;18.63;11.33;;;15.00;65.40;;;;;;5011123;28;20446;-83
2022/04/13 07:10:50;;;;;;;21.33;10.20;;;15.10;64.80;;;;;;5012086;28;20950;-82
2022/04/13 07:13:16;;;;;;;15.93;8.20;;;15.20;65.70;;;;;;5011919;28;20476;-82
2022/04/13 07:15:43;;;;;;;16.03;9.60;;;15.40;61.50;;;;;;5012092;28;20488;-85
2022/04/13 07:18:10;;;;;;;20.63;10.33;;;15.50;61.80;;;;;;5011931;28;21068;-82
2022/04/13 07:20:37;;;;;;;22.60;10.27;;;15.60;59.90;;;;;;5013580;28;20462;-80
2022/04/13 07:23:05;;;;;;;20.00;9.53;;;15.70;60.40;;;;;;5013341;28;20482;-84
2022/04/13 07:25:32;;;;;;;16.20;10.23;;;15.80;58.90;;;;;;5012851;28;20484;-82
2022/04/13 07:27:58;;;;;;;18.20;9.30;;;15.80;59.10;;;;;;5012483;28;20961;-81
2022/04/13 07:30:25;;;;;;;15.63;8.57;;;15.80;56.40;;;;;;5015108;28;20462;-82
2022/04/13 07:32:54;;;;;;;21.60;8.90;;;15.90;55.90;;;;;;5017064;28;20480;-82
2022/04/13 07:35:22;;;;;;;21.37;9.30;;;16.00;56.90;;;;;;5015185;28;20454;-81
2022/04/13 07:37:49;;;;;;;20.80;8.00;;;16.10;53.90;;;;;;5017121;28;20466;-82
2022/04/13 07:40:18;;;;;;;15.40;7.80;;;16.20;55.00;;;;;;5016138;28;20901;-81
2022/04/13 07:42:44;;;;;;;18.73;9.07;;;16.30;52.80;;;;;;5017082;28;20537;-82
2022/04/13 07:45:12;;;;;;;22.13;8.87;;;16.30;54.30;;;;;;5017240;28;20483;-82
2022/04/13 07:47:39;;;;;;;15.70;8.57;;;16.30;50.90;;;;;;5015824;28;20460;-83
2022/04/13 07:50:07;;;;;;;17.27;8.10;;;16.40;54.60;;;;;;5016556;28;20516;-82
2022/04/13 07:52:35;;;;;;;15.70;7.83;;;16.30;52.50;;;;;;5016258;28;20475;-81
2022/04/13 07:55:01;;;;;;;19.60;9.63;;;16.40;53.20;;;;;;5016413;28;20462;-81
2022/04/13 07:57:29;;;;;;;21.50;10.77;;;16.40;50.80;;;;;;5016708;28;20457;-82
2022/04/13 07:59:56;;;;;;;21.70;11.03;;;16.60;50.10;;;;;;5015084;28;20453;-82
2022/04/13 08:02:23;;;;;;;17.23;9.20;;;16.80;54.60;;;;;;5039691;23;20480;-85
2022/04/13 08:04:50;;;;;;;19.13;10.17;;;16.80;49.70;;;;;;5020654;28;20448;-85
2022/04/13 08:07:17;;;;;;;27.57;10.77;;;16.80;50.20;;;;;;5021412;28;20457;-85
2022/04/13 08:09:43;;;;;;;16.67;9.67;;;17.00;50.50;;;;;;5020542;28;20460;-85
2022/04/13 08:12:10;;;;;;;20.90;9.17;;;17.40;47.50;;;;;;5020821;28;20482;-84
2022/04/13 08:14:39;;;;;;;24.47;11.23;;;17.50;47.20;;;;;;5021061;28;20459;-84
2022/04/13 08:17:06;;;;;;;19.43;9.30;;;17.50;45.50;;;;;;5020504;28;20461;-85
2022/04/13 08:19:33;;;;;;;19.03;9.27;;;17.60;43.90;;;;;;5020374;28;20460;-85
2022/04/13 08:22:00;;;;;;;14.57;9.23;;;17.40;43.50;;;;;;5020851;28;20872;-83
2022/04/13 08:24:26;;;;;;;15.77;8.17;;;17.70;43.60;;;;;;5020558;28;20467;-82
2022/04/13 08:26:53;;;;;;;18.60;9.80;;;17.60;42.20;;;;;;5021245;28;20485;-85
2022/04/13 08:29:20;;;;;;;19.67;10.60;;;17.90;42.40;;;;;;5020123;28;20461;-85
2022/04/13 08:31:48;;;;;;;17.10;8.30;;;18.10;40.60;;;;;;5020926;28;20450;-85
2022/04/13 08:34:15;;;;;;;12.80;8.60;;;18.40;42.70;;;;;;5018997;28;20461;-85
2022/04/13 08:36:41;;;;;;;16.47;9.50;;;18.60;37.80;;;;;;5019928;28;20944;-85
2022/04/13 08:39:13;;;;;;;13.90;9.90;;;19.00;37.40;;;;;;5019856;28;20455;-85
2022/04/13 08:41:48;;;;;;;21.80;11.23;;;18.70;35.90;;;;;;5019596;28;20452;-85
2022/04/13 08:44:18;;;;;;;15.03;10.43;;;19.00;37.50;;;;;;5021588;28;20455;-83
2022/04/13 08:46:47;;;;;;;28.30;12.60;;;19.00;34.30;;;;;;5020075;28;21007;-83
2022/04/13 08:49:16;;;;;;;16.40;10.50;;;19.30;34.50;;;;;;5019569;28;20457;-83
2022/04/13 08:51:43;;;;;;;21.23;12.47;;;19.80;34.10;;;;;;5020835;28;20455;-84
2022/04/13 08:54:18;;;;;;;17.63;11.30;;;20.00;33.40;;;;;;5020187;28;20462;-83
2022/04/13 08:56:48;;;;;;;22.60;12.63;;;20.00;31.20;;;;;;5020457;28;20457;-83
2022/04/13 08:59:28;;;;;;;24.47;13.60;;;20.30;34.00;;;;;;5020398;28;20450;-84
2022/04/13 09:02:02;;;;;;;24.10;13.27;;;20.60;28.90;;;;;;5021031;28;20493;-83
2022/04/13 09:04:35;;;;;;;18.73;13.77;;;20.60;28.00;;;;;;5020934;28;20468;-83
2022/04/13 09:07:05;;;;;;;19.70;13.00;;;21.00;27.80;;;;;;5020339;28;21017;-83
2022/04/13 09:09:37;;;;;;;18.57;14.27;;;21.80;24.80;;;;;;5020073;28;20466;-83
2022/04/13 09:12:05;;;;;;;20.57;13.30;;;21.40;24.60;;;;;;5020526;28;20471;-83
2022/04/13 09:14:33;;;;;;;23.83;13.73;;;21.30;22.90;;;;;;5020873;28;20460;-83
2022/04/13 09:17:01;;;;;;;21.73;13.57;;;21.70;23.40;;;;;;5020212;28;20471;-83
2022/04/13 09:19:28;;;;;;;16.97;12.37;;;21.60;22.30;;;;;;5019686;28;20833;-83
2022/04/13 09:21:56;;;;;;;19.10;12.07;;;20.90;24.00;;;;;;5018661;28;20487;-85
2022/04/13 09:24:24;;;;;;;21.50;13.80;;;20.50;24.40;;;;;;5017711;28;20461;-85
2022/04/13 09:26:52;;;;;;;21.00;13.80;;;20.40;25.40;;;;;;5018632;28;20485;-85
2022/04/13 09:29:19;;;;;;;23.20;14.20;;;20.80;25.20;;;;;;5019365;28;20467;-85
2022/04/13 09:31:46;;;;;;;21.03;14.00;;;20.70;27.50;;;;;;5019885;28;20487;-83
2022/04/13 09:34:13;;;;;;;25.20;14.20;;;20.50;26.30;;;;;;5017569;28;20462;-85
2022/04/13 09:36:41;;;;;;;24.80;13.90;;;20.30;24.80;;;;;;5018791;28;20458;-85
2022/04/13 09:39:09;;;;;;;23.17;15.10;;;20.20;27.20;;;;;;5018878;28;20450;-83
2022/04/13 09:41:37;;;;;;;30.83;15.67;;;20.10;27.10;;;;;;5019316;28;20459;-85
2022/04/13 09:44:13;;;;;;;23.00;16.07;;;20.50;26.90;;;;;;5019163;28;20470;-85
2022/04/13 09:46:41;;;;;;;20.20;15.03;;;20.60;27.40;;;;;;5019097;28;20482;-85
2022/04/13 09:49:09;;;;;;;26.40;16.73;;;20.70;25.30;;;;;;5016165;28;20455;-85
2022/04/13 09:51:37;;;;;;;30.63;19.00;;;20.80;24.00;;;;;;5019399;28;20457;-83
2022/04/13 09:54:10;;;;;;;32.93;17.37;;;21.00;25.30;;;;;;5019074;28;20485;-84
2022/04/13 09:56:38;;;;;;;31.50;17.37;;;21.20;23.00;;;;;;5018030;28;20451;-84
2022/04/13 09:59:06;;;;;;;32.05;19.40;;;21.20;20.70;;;;;;5015305;28;20459;-84
2022/04/13 10:01:34;;;;;;;24.57;18.87;;;21.30;22.60;;;;;;5015719;28;20755;-80
2022/04/13 10:04:03;;;;;;;22.70;16.67;;;21.80;21.00;;;;;;5016265;28;20487;-80
2022/04/13 10:06:30;;;;;;;28.43;18.03;;;21.90;21.50;;;;;;5016301;28;20474;-82
2022/04/13 10:09:01;;;;;;;23.43;16.60;;;21.90;23.00;;;;;;5017112;28;20453;-80
2022/04/13 10:11:30;;;;;;;23.43;15.77;;;21.90;21.10;;;;;;5017950;28;20449;-82
2022/04/13 10:13:56;;;;;;;31.20;16.87;;;22.50;19.80;;;;;;5016906;28;20453;-82
2022/04/13 10:16:23;;;;;;;26.07;14.20;;;22.50;19.70;;;;;;5015812;28;20840;-82
2022/04/13 10:18:54;;;;;;;23.80;14.07;;;22.50;17.30;;;;;;5014349;28;20462;-82
2022/04/13 10:21:40;;;;;;;26.27;14.23;;;23.00;18.20;;;;;;5016069;28;20456;-82
2022/04/13 10:24:08;;;;;;;27.47;15.20;;;23.20;14.50;;;;;;5015692;28;20508;-83
2022/04/13 10:26:37;;;;;;;23.27;12.80;;;23.80;15.10;;;;;;5015937;28;20480;-82
2022/04/13 10:29:16;;;;;;;25.73;14.17;;;24.80;10.20;;;;;;5014741;28;20956;-83
2022/04/13 10:32:01;;;;;;;19.30;9.60;;;24.90;8.80;;;;;;5015889;28;20456;-82
2022/04/13 10:34:29;;;;;;;12.13;5.30;;;25.00;8.10;;;;;;5016536;28;20453;-83
2022/04/13 10:36:56;;;;;;;13.10;5.43;;;24.80;6.10;;;;;;5017236;28;20457;-83
2022/04/13 10:39:23;;;;;;;15.80;9.50;;;25.10;6.10;;;;;;5016221;28;20452;-83
2022/04/13 10:41:51;;;;;;;16.27;10.37;;;24.60;5.40;;;;;;5016916;28;20480;-82
2022/04/13 10:44:23;;;;;;;15.57;8.70;;;25.00;8.10;;;;;;5016671;28;20460;-81
2022/04/13 10:46:54;;;;;;;21.90;9.30;;;24.50;7.70;;;;;;5017084;28;20477;-82
2022/04/13 10:49:24;;;;;;;15.27;8.40;;;24.70;7.90;;;;;;5014796;28;20452;-80
2022/04/13 10:51:56;;;;;;;15.57;7.40;;;25.10;8.20;;;;;;5015182;28;20476;-80
2022/04/13 10:54:27;;;;;;;15.80;9.13;;;24.80;4.70;;;;;;5015352;28;20464;-79
2022/04/13 10:56:56;;;;;;;18.57;7.83;;;24.70;5.40;;;;;;5014959;28;20453;-80
2022/04/13 10:59:28;;;;;;;16.17;7.00;;;24.80;3.70;;;;;;5019515;28;20444;-82
2022/04/13 11:02:00;;;;;;;12.73;7.20;;;24.30;6.40;;;;;;5024729;28;20483;-82
2022/04/13 11:04:28;;;;;;;13.93;6.93;;;23.40;8.60;;;;;;5024382;28;20448;-83
2022/04/13 11:06:56;;;;;;;16.80;7.40;;;23.00;10.60;;;;;;5026104;28;20445;-83
2022/04/13 11:09:29;;;;;;;21.60;7.93;;;22.70;14.00;;;;;;5025254;28;20449;-86
2022/04/13 11:11:59;;;;;;;18.30;7.07;;;22.40;13.90;;;;;;5030031;28;20469;-83
2022/04/13 11:14:27;;;;;;;14.10;6.13;;;22.70;13.50;;;;;;5028517;28;20929;-81
2022/04/13 11:17:24;;;;;;;19.03;7.13;;;23.00;13.00;;;;;;5027422;28;20472;-83
2022/04/13 11:19:50;;;;;;;14.77;6.43;;;22.60;12.10;;;;;;5029656;28;20451;-83
2022/04/13 11:22:18;;;;;;;14.37;7.17;;;22.70;14.90;;;;;;5028744;28;20472;-83
2022/04/13 11:24:56;;;;;;;14.97;7.40;;;22.10;20.00;;;;;;5020105;28;20456;-84
2022/04/13 11:27:25;;;;;;;15.47;7.80;;;21.50;19.30;;;;;;5019478;28;20946;-85
2022/04/13 11:30:00;;;;;;;16.80;8.70;;;21.40;20.70;;;;;;5017858;28;20538;-84
2022/04/13 11:32:29;;;;;;;17.47;8.03;;;21.70;20.70;;;;;;5015943;28;20487;-85
2022/04/13 11:35:00;;;;;;;11.37;6.70;;;22.30;17.30;;;;;;5018288;28;20461;-85
2022/04/13 11:37:42;;;;;;;12.80;6.30;;;22.70;16.80;;;;;;5017398;28;21034;-85
2022/04/13 11:40:12;;;;;;;16.43;7.07;;;22.70;16.10;;;;;;5016994;28;20452;-82
2022/04/13 11:42:53;;;;;;;12.80;6.40;;;22.30;18.00;;;;;;5019088;28;20473;-83
2022/04/13 11:45:22;;;;;;;14.30;6.30;;;22.40;18.40;;;;;;5019456;28;20519;-85
2022/04/13 11:48:00;;;;;;;17.00;6.70;;;22.00;20.60;;;;;;5020024;28;20453;-84
2022/04/13 11:50:32;;;;;;;13.70;7.57;;;21.90;18.00;;;;;;5018010;28;20452;-84
2022/04/13 11:53:02;;;;;;;11.43;6.60;;;21.90;18.60;;;;;;5018433;28;20476;-84
2022/04/13 11:55:33;;;;;;;14.40;7.33;;;22.10;20.30;;;;;;5021158;28;20459;-83
2022/04/13 11:58:21;;;;;;;13.23;6.33;;;22.60;18.80;;;;;;5021120;28;20484;-85
2022/04/13 12:00:59;;;;;;;15.13;7.40;;;22.60;15.30;;;;;;5018036;28;20458;-85
2022/04/13 12:03:28;;;;;;;15.00;5.97;;;23.00;15.50;;;;;;5014825;28;20524;-85
2022/04/13 12:05:57;;;;;;;11.77;6.80;;;23.10;20.30;;;;;;5020278;28;20462;-86
2022/04/13 12:08:26;;;;;;;13.37;6.13;;;23.10;15.10;;;;;;5018884;28;20460;-86
2022/04/13 12:10:57;;;;;;;13.57;6.90;;;23.80;14.90;;;;;;5019815;28;20479;-85
2022/04/13 12:13:26;;;;;;;17.20;6.70;;;23.90;11.70;;;;;;5019997;28;20473;-85
2022/04/13 12:15:54;;;;;;;10.10;5.83;;;24.90;11.90;;;;;;5022512;28;20461;-85
2022/04/13 12:18:22;;;;;;;21.23;7.70;;;24.60;11.40;;;;;;5023934;28;20431;-84
2022/04/13 12:20:50;;;;;;;16.33;7.63;;;25.20;11.00;;;;;;5024378;28;20452;-85
2022/04/13 12:23:22;;;;;;;12.67;6.73;;;25.00;11.10;;;;;;5024089;28;20862;-86
2022/04/13 12:25:51;;;;;;;11.70;6.83;;;24.90;9.20;;;;;;5026243;28;20452;-86
2022/04/13 12:28:22;;;;;;;14.77;6.70;;;24.50;12.40;;;;;;5023087;28;20511;-85
2022/04/13 12:30:57;;;;;;;16.27;6.20;;;24.00;11.80;;;;;;5024499;28;20452;-85
2022/04/13 12:33:25;;;;;;;11.83;5.03;;;23.40;15.90;;;;;;5023901;28;20584;-85
2022/04/13 12:35:54;;;;;;;12.17;5.77;;;22.60;16.80;;;;;;5023268;28;20476;-85
2022/04/13 12:38:23;;;;;;;13.83;5.70;;;22.70;15.00;;;;;;5022697;28;20481;-83